Time;durP1;ratioP1;P1;durP2;ratioP2;P2;SDS_P1;SDS_P2;PMS_P1;PMS_P2;Temp;Humidity;BMP_temperature;BMP_pressure;BME280_temperature;BME280_humidity;BME280_pressure;Samples;Min_cycle;Max_cycle;Signal;HPM_P1;HPM_P2
2022/01/28 00:00:59;;;;;;;3.30;0.10;;;;;;;;;;4955090;29;20058;-64
2022/01/28 00:03:25;;;;;;;0.43;0.00;;;;;;;;;;4955435;28;20051;-65
2022/01/28 00:05:50;;;;;;;0.20;0.10;;;;;;;;;;4955201;28;20019;-65
2022/01/28 00:08:15;;;;;;;1.60;0.03;;;;;;;;;;4954885;28;20023;-65
2022/01/28 00:10:40;;;;;;;3.20;0.20;;;;;;;;;;4953451;29;20023;-65
2022/01/28 00:39:45;;;;;;;0.93;0.10;;;;;;;;;;4933305;29;20046;-63
2022/01/28 00:42:10;;;;;;;1.27;0.10;;;;;;;;;;4932549;29;20040;-64
2022/01/28 00:44:36;;;;;;;1.57;0.10;;;;;;;;;;4932778;29;20043;-64
2022/01/28 00:47:01;;;;;;;0.77;0.10;;;;;;;;;;4934051;29;20027;-64
2022/01/28 00:49:26;;;;;;;1.47;0.57;;;;;;;;;;4932139;29;20059;-65
2022/01/28 00:51:51;;;;;;;1.47;0.30;;;;;;;;;;4928167;29;20035;-66
2022/01/28 00:54:19;;;;;;;2.97;0.47;;;;;;;;;;4932435;29;20520;-65
2022/01/28 00:56:45;;;;;;;2.53;0.17;;;;;;;;;;4933251;29;20603;-63
2022/01/28 00:59:11;;;;;;;3.97;0.13;;;;;;;;;;4930055;29;20027;-65
2022/01/28 01:01:37;;;;;;;2.40;0.50;;;;;;;;;;4932926;29;20024;-64
2022/01/28 01:04:02;;;;;;;1.47;0.10;;;;;;;;;;4948345;29;20047;-65
2022/01/28 01:06:28;;;;;;;2.07;0.10;;;;;;;;;;4953445;28;20023;-63
2022/01/28 01:08:53;;;;;;;5.80;0.40;;;;;;;;;;4954274;28;20103;-64
2022/01/28 01:11:21;;;;;;;4.60;0.43;;;;;;;;;;4953884;29;20023;-64
2022/01/28 01:13:47;;;;;;;5.93;0.30;;;;;;;;;;4952673;28;20400;-64
2022/01/28 01:16:15;;;;;;;2.50;0.30;;;;;;;;;;4954184;28;20027;-64
2022/01/28 01:21:13;;;;;;;2.40;0.20;;;;;;;;;;4950811;28;20058;-64
2022/01/28 01:23:47;;;;;;;4.17;0.27;;;;;;;;;;4953508;28;20118;-63
2022/01/28 01:26:13;;;;;;;1.93;0.20;;;;;;;;;;4949830;29;20481;-63
2022/01/28 01:28:40;;;;;;;3.67;0.40;;;;;;;;;;4960626;28;20070;-63
2022/01/28 01:31:08;;;;;;;2.10;0.00;;;;;;;;;;4953778;29;20034;-64
2022/01/28 01:33:45;;;;;;;3.97;0.33;;;;;;;;;;4953644;28;20023;-64
2022/01/28 01:36:10;;;;;;;1.60;0.20;;;;;;;;;;4953831;28;20023;-64
2022/01/28 01:38:38;;;;;;;1.40;0.07;;;;;;;;;;4954979;28;20031;-63
2022/01/28 01:41:08;;;;;;;1.83;0.20;;;;;;;;;;4954115;28;20086;-64
2022/01/28 01:43:50;;;;;;;4.30;0.20;;;;;;;;;;4953294;28;20050;-64
2022/01/28 01:46:36;;;;;;;2.07;0.10;;;;;;;;;;4953828;29;20034;-64
2022/01/28 01:54:26;;;;;;;1.43;0.10;;;;;;;;;;4953197;28;20023;-65
2022/01/28 01:56:53;;;;;;;5.13;0.50;;;;;;;;;;4953749;29;20035;-65
2022/01/28 01:59:18;;;;;;;1.50;0.40;;;;;;;;;;4954132;28;20472;-65
2022/01/28 02:01:44;;;;;;;0.93;0.20;;;;;;;;;;4953150;28;20046;-65
2022/01/28 02:04:10;;;;;;;1.63;0.07;;;;;;;;;;4949073;29;20048;-65
2022/01/28 02:06:35;;;;;;;2.47;0.20;;;;;;;;;;4950676;29;20118;-65
2022/01/28 02:09:01;;;;;;;2.43;0.30;;;;;;;;;;4953498;28;20078;-65
2022/01/28 02:11:26;;;;;;;1.30;0.10;;;;;;;;;;4956266;28;20027;-65
2022/01/28 02:13:52;;;;;;;3.13;0.13;;;;;;;;;;4954790;28;20027;-65
2022/01/28 02:16:17;;;;;;;6.40;0.60;;;;;;;;;;4957192;28;20023;-65
2022/01/28 02:18:43;;;;;;;3.83;0.80;;;;;;;;;;4956725;29;20059;-65
2022/01/28 02:21:11;;;;;;;3.00;0.20;;;;;;;;;;4953391;28;20015;-64
2022/01/28 02:23:37;;;;;;;2.40;0.30;;;;;;;;;;4956518;28;20030;-64
2022/01/28 02:26:03;;;;;;;4.00;0.23;;;;;;;;;;4956314;28;20044;-65
2022/01/28 02:28:32;;;;;;;3.07;0.50;;;;;;;;;;4951957;29;20516;-66
2022/01/28 02:30:58;;;;;;;2.07;0.13;;;;;;;;;;4957419;28;20038;-63
2022/01/28 02:33:25;;;;;;;4.00;0.30;;;;;;;;;;4957246;28;20027;-65
2022/01/28 02:35:51;;;;;;;1.33;0.33;;;;;;;;;;4956757;28;20484;-65
2022/01/28 02:38:17;;;;;;;4.57;0.40;;;;;;;;;;4951791;29;20027;-64
2022/01/28 02:40:48;;;;;;;2.07;0.23;;;;;;;;;;4960339;28;20022;-64
2022/01/28 02:45:43;;;;;;;1.67;0.03;;;;;;;;;;4956780;29;20030;-63
2022/01/28 02:48:16;;;;;;;1.60;0.63;;;;;;;;;;4956149;28;20019;-62
2022/01/28 02:50:50;;;;;;;4.23;0.33;;;;;;;;;;4953342;28;20019;-63
2022/01/28 02:53:26;;;;;;;1.23;0.30;;;;;;;;;;4961196;28;20035;-62
2022/01/28 02:55:58;;;;;;;2.43;0.20;;;;;;;;;;4955049;29;20031;-63
2022/01/28 02:58:25;;;;;;;2.00;0.20;;;;;;;;;;4955204;28;20050;-63
2022/01/28 03:00:53;;;;;;;2.33;0.30;;;;;;;;;;4963694;28;20049;-63
2022/01/28 03:03:19;;;;;;;2.20;0.15;;;;;;;;;;4967567;28;20023;-63
2022/01/28 03:05:44;;;;;;;4.90;0.50;;;;;;;;;;4956681;28;20023;-64
2022/01/28 03:08:10;;;;;;;3.60;0.20;;;;;;;;;;4954656;29;20539;-63
2022/01/28 03:15:33;;;;;;;6.90;0.57;;;;;;;;;;4956530;28;20031;-63
2022/01/28 03:18:21;;;;;;;1.80;0.30;;;;;;;;;;4955488;29;20403;-63
2022/01/28 03:23:18;;;;;;;3.80;0.30;;;;;;;;;;4953984;28;20058;-62
2022/01/28 03:25:45;;;;;;;1.15;0.30;;;;;;;;;;4955600;28;20477;-63
2022/01/28 03:28:11;;;;;;;3.87;0.30;;;;;;;;;;4955120;28;20483;-62
2022/01/28 03:30:36;;;;;;;2.40;0.20;;;;;;;;;;4952959;29;20020;-63
2022/01/28 03:33:02;;;;;;;2.33;0.37;;;;;;;;;;4965806;28;20019;-63
2022/01/28 03:35:27;;;;;;;2.60;0.40;;;;;;;;;;4955954;28;20392;-62
2022/01/28 03:37:59;;;;;;;2.93;0.20;;;;;;;;;;4955090;28;20023;-62
2022/01/28 03:40:24;;;;;;;4.90;0.10;;;;;;;;;;4955713;28;20469;-64
2022/01/28 03:42:49;;;;;;;1.63;0.17;;;;;;;;;;4960278;28;20033;-64
2022/01/28 03:45:15;;;;;;;1.07;0.20;;;;;;;;;;4956429;28;20036;-63
2022/01/28 03:47:40;;;;;;;1.50;0.20;;;;;;;;;;4955402;28;20174;-63
2022/01/28 03:50:05;;;;;;;1.93;0.20;;;;;;;;;;4949877;29;20086;-62
2022/01/28 03:52:31;;;;;;;1.50;0.10;;;;;;;;;;4954827;28;20027;-62
2022/01/28 03:54:56;;;;;;;0.95;0.10;;;;;;;;;;4955217;28;20031;-62
2022/01/28 03:57:21;;;;;;;0.30;0.00;;;;;;;;;;4954851;29;20043;-62
2022/01/28 03:59:46;;;;;;;1.83;0.15;;;;;;;;;;4955301;28;20109;-62
2022/01/28 04:02:11;;;;;;;2.65;0.22;;;;;;;;;;4954855;29;20027;-63
2022/01/28 04:13:01;;;;;;;1.23;0.30;;;;;;;;;;4932945;29;20091;-63
2022/01/28 04:18:00;;;;;;;0.87;0.10;;;;;;;;;;4933176;29;20034;-62
2022/01/28 04:20:25;;;;;;;3.17;0.30;;;;;;;;;;4929357;29;20039;-63
2022/01/28 04:22:51;;;;;;;3.40;0.30;;;;;;;;;;4932480;29;20063;-63
2022/01/28 04:25:16;;;;;;;4.10;0.40;;;;;;;;;;4941083;29;20053;-62
2022/01/28 04:27:41;;;;;;;2.65;0.20;;;;;;;;;;4933747;29;20036;-62
2022/01/28 04:30:07;;;;;;;6.03;0.45;;;;;;;;;;4933260;29;20539;-62
2022/01/28 04:32:33;;;;;;;4.10;0.20;;;;;;;;;;4932742;29;20059;-62
2022/01/28 04:34:59;;;;;;;4.78;0.52;;;;;;;;;;4932618;29;20051;-61
2022/01/28 04:37:36;;;;;;;5.05;0.30;;;;;;;;;;4917018;29;20185;-63
2022/01/28 04:43:00;;;;;;;3.30;0.63;;;;;;;;;;4932492;29;20099;-63
2022/01/28 05:00:56;;;;;;;4.30;0.43;;;;;;;;;;4953867;28;20061;-63
2022/01/28 05:03:50;;;;;;;4.28;0.38;;;;;;;;;;4954410;29;20488;-63
2022/01/28 05:06:40;;;;;;;5.73;0.53;;;;;;;;;;4952727;29;20527;-63
2022/01/28 05:12:20;;;;;;;4.78;0.40;;;;;;;;;;4954378;29;20046;-62
2022/01/28 05:28:35;;;;;;;5.38;0.43;;;;;;;;;;4919365;29;20436;-63
2022/01/28 05:31:00;;;;;;;6.47;0.40;;;;;;;;;;4913453;29;20040;-63
2022/01/28 05:33:25;;;;;;;8.15;0.40;;;;;;;;;;4919808;29;20492;-63
2022/01/28 05:35:51;;;;;;;4.20;0.22;;;;;;;;;;4930053;29;20131;-63
2022/01/28 05:38:16;;;;;;;4.55;0.40;;;;;;;;;;4922551;29;20060;-63
2022/01/28 05:40:41;;;;;;;3.50;0.30;;;;;;;;;;4920360;29;20074;-68
2022/01/28 05:43:06;;;;;;;3.78;0.30;;;;;;;;;;4916263;29;20036;-68
2022/01/28 05:45:31;;;;;;;3.33;0.20;;;;;;;;;;4915753;29;20036;-67
2022/01/28 05:47:58;;;;;;;3.73;0.17;;;;;;;;;;4929232;29;20083;-64
2022/01/28 05:50:23;;;;;;;2.65;0.35;;;;;;;;;;4899242;29;20607;-67
2022/01/28 05:52:48;;;;;;;4.63;0.30;;;;;;;;;;4916560;29;20040;-66
2022/01/28 05:55:13;;;;;;;6.03;0.60;;;;;;;;;;4927272;29;20115;-67
2022/01/28 05:57:39;;;;;;;3.40;0.50;;;;;;;;;;4889712;29;20506;-66
2022/01/28 06:00:04;;;;;;;4.40;0.50;;;;;;;;;;4898283;29;20414;-66
2022/01/28 06:02:30;;;;;;;6.70;0.40;;;;;;;;;;4897704;29;20029;-66
2022/01/28 06:04:55;;;;;;;4.07;0.80;;;;;;;;;;4912597;29;20034;-67
2022/01/28 06:07:21;;;;;;;4.63;0.60;;;;;;;;;;4956485;28;21715;-66
2022/01/28 06:09:46;;;;;;;3.43;0.50;;;;;;;;;;4958510;28;20170;-67
2022/01/28 06:12:11;;;;;;;7.83;0.97;;;;;;;;;;4959156;28;20469;-67
2022/01/28 06:14:36;;;;;;;10.07;0.30;;;;;;;;;;4956971;28;20111;-63
2022/01/28 06:17:02;;;;;;;3.83;0.40;;;;;;;;;;4956346;28;20091;-66
2022/01/28 06:19:27;;;;;;;4.60;1.37;;;;;;;;;;4956418;28;20031;-66
2022/01/28 06:21:53;;;;;;;6.57;0.93;;;;;;;;;;4951137;28;20031;-66
2022/01/28 06:24:18;;;;;;;5.93;0.73;;;;;;;;;;4953182;28;20465;-66
2022/01/28 06:26:43;;;;;;;3.23;0.40;;;;;;;;;;4957034;29;20067;-65
2022/01/28 06:29:10;;;;;;;3.57;0.50;;;;;;;;;;4955822;28;20473;-65
2022/01/28 06:31:35;;;;;;;4.47;0.30;;;;;;;;;;4963033;28;20061;-65
2022/01/28 06:34:00;;;;;;;4.53;0.43;;;;;;;;;;4967312;28;20059;-66
2022/01/28 06:36:26;;;;;;;4.43;0.60;;;;;;;;;;4956617;28;20019;-66
2022/01/28 06:38:51;;;;;;;2.80;0.10;;;;;;;;;;4956238;29;20023;-66
2022/01/28 06:41:16;;;;;;;3.73;0.20;;;;;;;;;;4956260;29;20519;-67
2022/01/28 06:43:41;;;;;;;4.10;0.83;;;;;;;;;;4958039;28;20483;-66
2022/01/28 06:46:07;;;;;;;6.20;0.63;;;;;;;;;;4956023;28;20079;-64
2022/01/28 06:48:32;;;;;;;4.10;0.63;;;;;;;;;;4955675;28;20059;-65
2022/01/28 06:50:58;;;;;;;5.90;0.30;;;;;;;;;;4953355;29;20027;-66
2022/01/28 06:53:23;;;;;;;4.40;0.50;;;;;;;;;;4966508;28;20035;-65
2022/01/28 06:55:49;;;;;;;4.07;0.30;;;;;;;;;;4957724;28;20039;-65
2022/01/28 06:58:14;;;;;;;3.40;0.37;;;;;;;;;;4945779;29;20031;-66
2022/01/28 07:00:40;;;;;;;5.83;0.30;;;;;;;;;;4958071;28;20431;-66
2022/01/28 07:03:06;;;;;;;5.77;0.53;;;;;;;;;;4957901;28;20054;-65
2022/01/28 07:05:31;;;;;;;5.57;0.87;;;;;;;;;;4965703;28;20019;-65
2022/01/28 07:07:57;;;;;;;2.63;0.27;;;;;;;;;;4955627;28;20046;-62
2022/01/28 07:10:22;;;;;;;6.17;0.30;;;;;;;;;;4956623;28;20019;-66
2022/01/28 07:12:47;;;;;;;3.13;0.23;;;;;;;;;;4955587;28;20420;-64
2022/01/28 07:15:13;;;;;;;7.17;0.87;;;;;;;;;;4974507;28;20015;-65
2022/01/28 07:17:38;;;;;;;6.17;0.60;;;;;;;;;;4957884;28;20023;-65
2022/01/28 07:20:04;;;;;;;3.77;0.57;;;;;;;;;;4951813;29;20031;-65
2022/01/28 07:22:29;;;;;;;5.30;0.40;;;;;;;;;;4954160;29;20027;-65
2022/01/28 07:24:54;;;;;;;3.90;0.40;;;;;;;;;;4964026;28;20105;-65
2022/01/28 07:27:20;;;;;;;2.20;0.20;;;;;;;;;;4954580;28;20027;-67
2022/01/28 07:29:50;;;;;;;6.07;0.40;;;;;;;;;;4954666;28;20031;-67
2022/01/28 07:32:16;;;;;;;3.87;0.27;;;;;;;;;;4953682;29;20027;-67
2022/01/28 07:34:41;;;;;;;4.80;0.67;;;;;;;;;;4952487;28;20026;-68
2022/01/28 07:37:06;;;;;;;7.17;2.00;;;;;;;;;;4953878;28;20038;-68
2022/01/28 07:39:31;;;;;;;6.73;1.03;;;;;;;;;;4954663;29;20015;-67
2022/01/28 07:41:57;;;;;;;3.00;0.57;;;;;;;;;;4954386;29;20116;-65
2022/01/28 07:44:22;;;;;;;2.33;0.30;;;;;;;;;;4952916;29;20024;-68
2022/01/28 07:46:47;;;;;;;9.50;0.93;;;;;;;;;;4954675;28;20035;-68
2022/01/28 07:49:13;;;;;;;6.00;0.40;;;;;;;;;;4953893;28;20096;-67
2022/01/28 07:51:39;;;;;;;5.83;1.17;;;;;;;;;;4948851;29;20027;-68
2022/01/28 07:54:05;;;;;;;9.10;1.30;;;;;;;;;;4954073;29;20102;-68
2022/01/28 07:56:30;;;;;;;3.50;0.50;;;;;;;;;;4953549;29;20469;-68
2022/01/28 07:58:55;;;;;;;5.20;0.50;;;;;;;;;;4952256;28;20042;-69
2022/01/28 08:01:20;;;;;;;4.10;0.60;;;;;;;;;;4953726;28;20031;-68
2022/01/28 08:03:46;;;;;;;3.43;0.43;;;;;;;;;;4953903;29;20402;-68
2022/01/28 08:06:11;;;;;;;3.53;0.93;;;;;;;;;;4954267;28;20429;-68
2022/01/28 08:08:36;;;;;;;4.27;0.50;;;;;;;;;;4957809;28;20031;-68
2022/01/28 08:11:02;;;;;;;4.90;0.83;;;;;;;;;;4953618;28;20050;-67
2022/01/28 08:13:27;;;;;;;3.27;0.50;;;;;;;;;;4948828;28;20044;-66
2022/01/28 08:15:53;;;;;;;6.40;1.03;;;;;;;;;;4935286;29;20032;-67
2022/01/28 08:18:18;;;;;;;7.37;1.10;;;;;;;;;;4946385;28;20031;-67
2022/01/28 08:20:46;;;;;;;14.17;1.37;;;;;;;;;;4952045;28;20027;-68
2022/01/28 08:23:11;;;;;;;4.10;0.60;;;;;;;;;;4954611;28;20065;-68
2022/01/28 08:25:36;;;;;;;5.80;0.63;;;;;;;;;;4917235;28;1063632;-68
2022/01/28 08:28:03;;;;;;;5.60;0.53;;;;;;;;;;4968688;28;20412;-67
2022/01/28 08:30:29;;;;;;;4.37;0.63;;;;;;;;;;4953751;28;20437;-68
2022/01/28 08:32:54;;;;;;;7.20;0.40;;;;;;;;;;4952798;28;20069;-68
2022/01/28 08:35:27;;;;;;;9.50;1.40;;;;;;;;;;4954740;28;20030;-68
2022/01/28 08:37:52;;;;;;;2.83;0.43;;;;;;;;;;4954100;28;20082;-67
2022/01/28 08:40:18;;;;;;;6.28;0.90;;;;;;;;;;4954628;28;20035;-68
2022/01/28 08:42:43;;;;;;;3.77;0.60;;;;;;;;;;4953805;28;20544;-68
2022/01/28 08:45:09;;;;;;;8.43;0.60;;;;;;;;;;4951968;28;20019;-68
2022/01/28 08:47:34;;;;;;;5.83;0.50;;;;;;;;;;4940667;29;20121;-69
2022/01/28 08:49:59;;;;;;;7.77;0.60;;;;;;;;;;4935926;29;20460;-68
2022/01/28 08:52:24;;;;;;;3.90;0.87;;;;;;;;;;4960137;28;20031;-68
2022/01/28 08:54:49;;;;;;;3.90;0.50;;;;;;;;;;4954241;28;20031;-68
2022/01/28 08:57:15;;;;;;;4.60;0.85;;;;;;;;;;4954304;28;20042;-67
2022/01/28 08:59:40;;;;;;;6.10;0.47;;;;;;;;;;4952400;29;20483;-68
2022/01/28 09:02:06;;;;;;;5.33;0.50;;;;;;;;;;4955037;28;20396;-68
2022/01/28 09:04:31;;;;;;;1.27;0.20;;;;;;;;;;4954836;28;20027;-68
2022/01/28 09:06:56;;;;;;;7.38;0.88;;;;;;;;;;4950775;28;20118;-68
2022/01/28 09:09:21;;;;;;;2.35;0.30;;;;;;;;;;4966947;28;20030;-67
2022/01/28 09:11:54;;;;;;;3.10;0.50;;;;;;;;;;4953534;28;20070;-65
2022/01/28 09:14:22;;;;;;;3.58;0.30;;;;;;;;;;4950800;28;20437;-67
2022/01/28 09:16:47;;;;;;;3.80;0.40;;;;;;;;;;4953462;29;20032;-68
2022/01/28 09:19:13;;;;;;;6.45;0.60;;;;;;;;;;4953263;29;20030;-68
2022/01/28 09:21:38;;;;;;;4.47;1.13;;;;;;;;;;4950053;28;20027;-67
2022/01/28 09:24:04;;;;;;;2.60;0.40;;;;;;;;;;4952817;28;20023;-67
2022/01/28 09:26:29;;;;;;;3.90;0.50;;;;;;;;;;4948665;28;20114;-68
2022/01/28 09:28:54;;;;;;;5.05;0.60;;;;;;;;;;4952891;29;20023;-67
2022/01/28 09:31:20;;;;;;;6.70;0.70;;;;;;;;;;4953906;29;20027;-66
2022/01/28 09:33:45;;;;;;;7.07;1.58;;;;;;;;;;4953478;28;20082;-67
2022/01/28 09:36:13;;;;;;;3.65;0.47;;;;;;;;;;4952640;28;20385;-68
2022/01/28 09:38:38;;;;;;;7.43;1.08;;;;;;;;;;4948823;29;20516;-68
2022/01/28 09:41:05;;;;;;;7.20;0.70;;;;;;;;;;4951636;29;20122;-69
2022/01/28 09:43:30;;;;;;;5.45;0.80;;;;;;;;;;4951859;29;20496;-70
2022/01/28 09:45:56;;;;;;;6.47;1.15;;;;;;;;;;4959287;28;20302;-69
2022/01/28 09:48:22;;;;;;;5.38;0.77;;;;;;;;;;4953038;28;20490;-68
2022/01/28 09:50:48;;;;;;;10.75;1.98;;;;;;;;;;4948346;28;20027;-69
2022/01/28 09:53:14;;;;;;;4.95;0.50;;;;;;;;;;4951691;28;20043;-68
2022/01/28 09:55:39;;;;;;;7.65;0.60;;;;;;;;;;4952138;28;20035;-69
2022/01/28 09:58:05;;;;;;;4.65;0.70;;;;;;;;;;4938494;29;20031;-67
2022/01/28 10:00:33;;;;;;;7.47;0.70;;;;;;;;;;4951803;28;20484;-68
2022/01/28 10:03:03;;;;;;;11.60;1.40;;;;;;;;;;4953080;28;20032;-69
2022/01/28 10:05:32;;;;;;;5.32;1.17;;;;;;;;;;4953058;28;20110;-68
2022/01/28 10:08:01;;;;;;;8.88;1.30;;;;;;;;;;4952324;29;20029;-70
2022/01/28 10:10:26;;;;;;;6.57;1.42;;;;;;;;;;4951644;28;20168;-68
2022/01/28 10:13:09;;;;;;;8.90;1.23;;;;;;;;;;4948475;29;20489;-68
2022/01/28 10:15:34;;;;;;;10.63;1.65;;;;;;;;;;4947348;29;20023;-69
2022/01/28 10:17:59;;;;;;;7.25;0.90;;;;;;;;;;4952937;29;20502;-69
2022/01/28 10:20:26;;;;;;;8.85;0.80;;;;;;;;;;4948851;28;20039;-66
2022/01/28 10:22:58;;;;;;;5.32;0.55;;;;;;;;;;4951984;28;20027;-66
2022/01/28 10:25:24;;;;;;;12.60;2.15;;;;;;;;;;4952420;28;20086;-67
2022/01/28 10:27:59;;;;;;;4.20;0.68;;;;;;;;;;4952860;28;20524;-66
2022/01/28 10:30:24;;;;;;;4.82;0.70;;;;;;;;;;4951585;28;20027;-67
2022/01/28 10:33:08;;;;;;;6.20;0.90;;;;;;;;;;4953814;28;20043;-66
2022/01/28 10:35:33;;;;;;;10.77;1.00;;;;;;;;;;4956841;29;20054;-68
2022/01/28 10:37:59;;;;;;;5.30;0.90;;;;;;;;;;4956439;29;20074;-68
2022/01/28 10:40:24;;;;;;;3.88;0.95;;;;;;;;;;4970911;28;20038;-67
2022/01/28 10:42:52;;;;;;;6.72;0.95;;;;;;;;;;4956079;28;20543;-66
2022/01/28 10:45:19;;;;;;;5.80;0.77;;;;;;;;;;4956499;29;20031;-67
2022/01/28 10:47:48;;;;;;;4.90;0.80;;;;;;;;;;4954932;29;20015;-67
2022/01/28 10:50:16;;;;;;;7.05;0.65;;;;;;;;;;4951731;28;20034;-67
2022/01/28 10:52:41;;;;;;;6.43;0.68;;;;;;;;;;4954647;28;20440;-67
2022/01/28 10:55:07;;;;;;;5.88;0.60;;;;;;;;;;4971229;28;20023;-67
2022/01/28 10:57:32;;;;;;;4.55;0.60;;;;;;;;;;4956685;28;20031;-68
2022/01/28 10:59:58;;;;;;;5.22;0.93;;;;;;;;;;4955195;29;20393;-68
2022/01/28 11:02:24;;;;;;;6.20;0.90;;;;;;;;;;4954781;28;20020;-67
2022/01/28 11:04:52;;;;;;;4.50;0.98;;;;;;;;;;4951955;29;20015;-65
2022/01/28 11:07:17;;;;;;;8.27;1.10;;;;;;;;;;4952957;28;20604;-66
2022/01/28 11:09:43;;;;;;;1.90;0.30;;;;;;;;;;4951834;28;20118;-66
2022/01/28 11:12:08;;;;;;;12.90;2.20;;;;;;;;;;4951091;28;20020;-66
2022/01/28 11:14:33;;;;;;;8.57;1.03;;;;;;;;;;4952416;29;20074;-66
2022/01/28 11:16:59;;;;;;;8.50;0.97;;;;;;;;;;4955196;28;20039;-67
2022/01/28 11:19:27;;;;;;;7.37;1.03;;;;;;;;;;4955676;28;20034;-67
2022/01/28 11:21:52;;;;;;;3.90;0.90;;;;;;;;;;4948898;28;20027;-67
2022/01/28 11:24:31;;;;;;;10.33;1.13;;;;;;;;;;4954358;28;20928;-67
2022/01/28 11:27:04;;;;;;;16.30;1.80;;;;;;;;;;4952936;28;20478;-67
2022/01/28 11:29:30;;;;;;;14.07;1.60;;;;;;;;;;4944244;29;20468;-66
2022/01/28 11:31:56;;;;;;;13.40;1.73;;;;;;;;;;4955092;28;20031;-66
2022/01/28 11:34:31;;;;;;;6.93;1.20;;;;;;;;;;4955504;28;20023;-68
2022/01/28 11:37:16;;;;;;;9.18;1.52;;;;;;;;;;4955692;28;20640;-68
2022/01/28 11:39:45;;;;;;;9.20;1.85;;;;;;;;;;4936251;29;20114;-68
2022/01/28 11:42:13;;;;;;;16.98;1.40;;;;;;;;;;4953605;29;20086;-68
2022/01/28 11:44:50;;;;;;;13.70;2.57;;;;;;;;;;4949744;28;20030;-67
2022/01/28 11:47:27;;;;;;;13.13;2.40;;;;;;;;;;4941050;29;20028;-68
2022/01/28 11:49:55;;;;;;;8.47;1.20;;;;;;;;;;4951928;28;20530;-67
2022/01/28 11:52:30;;;;;;;12.07;1.70;;;;;;;;;;4952496;28;20139;-67
2022/01/28 11:54:56;;;;;;;9.80;1.65;;;;;;;;;;4954841;29;20039;-68
2022/01/28 11:57:25;;;;;;;11.13;1.50;;;;;;;;;;4954393;29;20031;-67
2022/01/28 11:59:50;;;;;;;14.50;2.00;;;;;;;;;;4954226;28;20047;-68
2022/01/28 12:02:16;;;;;;;15.03;1.63;;;;;;;;;;4952641;28;20058;-67
2022/01/28 12:04:42;;;;;;;14.82;1.83;;;;;;;;;;4954545;29;20031;-67
2022/01/28 12:07:09;;;;;;;10.30;1.70;;;;;;;;;;4954561;28;20488;-67
2022/01/28 12:09:36;;;;;;;14.00;1.37;;;;;;;;;;4954514;28;20460;-67
2022/01/28 12:12:01;;;;;;;10.07;1.57;;;;;;;;;;4953907;29;20028;-67
2022/01/28 12:14:45;;;;;;;10.57;2.40;;;;;;;;;;4953744;28;20034;-67
2022/01/28 12:17:29;;;;;;;11.23;1.65;;;;;;;;;;4954934;29;20023;-67
2022/01/28 12:20:22;;;;;;;9.50;1.10;;;;;;;;;;4950802;28;20035;-66
2022/01/28 12:22:59;;;;;;;15.48;1.90;;;;;;;;;;4953773;28;20035;-67
2022/01/28 12:25:36;;;;;;;12.52;2.05;;;;;;;;;;4961655;28;20090;-68
2022/01/28 12:28:17;;;;;;;5.47;0.98;;;;;;;;;;4953352;29;20023;-68
2022/01/28 12:30:50;;;;;;;11.68;1.50;;;;;;;;;;4953673;28;20042;-68
2022/01/28 12:33:20;;;;;;;11.15;1.55;;;;;;;;;;4954595;28;20027;-68
2022/01/28 12:35:49;;;;;;;10.18;1.40;;;;;;;;;;4952122;29;20023;-68
2022/01/28 12:38:15;;;;;;;14.30;2.13;;;;;;;;;;4953065;28;20027;-68
2022/01/28 12:40:47;;;;;;;16.25;2.08;;;;;;;;;;4954519;28;20078;-68
2022/01/28 12:43:16;;;;;;;5.90;0.98;;;;;;;;;;4953369;29;20031;-68
2022/01/28 12:45:45;;;;;;;7.53;0.85;;;;;;;;;;4954779;28;20046;-68
2022/01/28 12:48:10;;;;;;;13.88;1.63;;;;;;;;;;4953155;28;20035;-68
2022/01/28 12:50:35;;;;;;;9.55;1.83;;;;;;;;;;4944182;28;20113;-68
2022/01/28 12:53:00;;;;;;;12.32;1.70;;;;;;;;;;4951992;29;20038;-67
2022/01/28 12:55:33;;;;;;;8.63;1.15;;;;;;;;;;4951292;28;20038;-68
2022/01/28 12:57:58;;;;;;;7.30;1.15;;;;;;;;;;4952048;28;20563;-67
2022/01/28 13:00:23;;;;;;;12.20;1.38;;;;;;;;;;4952759;29;20062;-67
2022/01/28 13:02:51;;;;;;;10.85;1.02;;;;;;;;;;4956847;28;20026;-67
2022/01/28 13:05:32;;;;;;;5.40;0.63;;;;;;;;;;4967846;28;20027;-68
2022/01/28 13:10:41;;;;;;;6.57;1.08;;;;;;;;;;4945742;29;20034;-67
2022/01/28 13:13:08;;;;;;;6.28;1.25;;;;;;;;;;4948382;29;20039;-67
2022/01/28 13:15:34;;;;;;;8.38;0.73;;;;;;;;;;4953188;29;20428;-68
2022/01/28 13:18:00;;;;;;;10.15;1.35;;;;;;;;;;4952365;28;20117;-68
2022/01/28 13:20:31;;;;;;;9.13;0.75;;;;;;;;;;4945099;28;20027;-68
2022/01/28 13:22:56;;;;;;;8.23;0.80;;;;;;;;;;4941325;29;20035;-68
2022/01/28 13:25:23;;;;;;;8.40;1.92;;;;;;;;;;4951452;28;20575;-67
2022/01/28 13:27:53;;;;;;;11.85;1.67;;;;;;;;;;4952431;28;20109;-65
2022/01/28 13:30:19;;;;;;;13.50;1.48;;;;;;;;;;4951266;28;20015;-66
2022/01/28 13:32:49;;;;;;;7.07;1.35;;;;;;;;;;4951217;29;20038;-68
2022/01/28 13:35:16;;;;;;;10.60;2.38;;;;;;;;;;4944361;29;20023;-67
2022/01/28 13:37:45;;;;;;;10.18;1.73;;;;;;;;;;4951942;29;20384;-67
2022/01/28 13:40:29;;;;;;;10.02;0.85;;;;;;;;;;4952880;28;20029;-67
2022/01/28 13:42:55;;;;;;;10.18;1.63;;;;;;;;;;4951468;28;20030;-67
2022/01/28 13:45:27;;;;;;;11.93;1.52;;;;;;;;;;4949862;28;20162;-66
2022/01/28 13:47:53;;;;;;;9.75;2.10;;;;;;;;;;4951151;29;20488;-68
2022/01/28 13:50:26;;;;;;;11.13;1.10;;;;;;;;;;4946725;28;20039;-68
2022/01/28 13:53:07;;;;;;;14.48;1.42;;;;;;;;;;4951509;28;20035;-68
2022/01/28 13:55:33;;;;;;;12.48;1.20;;;;;;;;;;4952833;28;20030;-68
2022/01/28 13:58:04;;;;;;;11.70;1.33;;;;;;;;;;4950993;28;20102;-68
2022/01/28 14:00:37;;;;;;;14.52;1.50;;;;;;;;;;4962751;28;20055;-68
2022/01/28 14:03:02;;;;;;;9.32;1.00;;;;;;;;;;4949711;28;20480;-68
2022/01/28 14:05:47;;;;;;;8.82;1.38;;;;;;;;;;4950030;29;20030;-68
2022/01/28 14:08:12;;;;;;;5.55;0.73;;;;;;;;;;4953725;29;20058;-68
2022/01/28 14:10:38;;;;;;;10.55;1.23;;;;;;;;;;4949610;28;20138;-68
2022/01/28 14:13:22;;;;;;;11.65;1.42;;;;;;;;;;4955722;29;20045;-67
2022/01/28 14:16:11;;;;;;;3.75;0.77;;;;;;;;;;4954805;29;20510;-67
2022/01/28 14:18:36;;;;;;;4.80;0.80;;;;;;;;;;4948348;29;20035;-68
2022/01/28 14:21:01;;;;;;;8.73;1.08;;;;;;;;;;4946673;28;20074;-67
2022/01/28 14:23:27;;;;;;;8.57;0.90;;;;;;;;;;4953328;28;20028;-67
2022/01/28 14:25:52;;;;;;;5.97;1.17;;;;;;;;;;4953032;29;20047;-66
2022/01/28 14:30:43;;;;;;;7.22;0.90;;;;;;;;;;4954085;29;20499;-66
2022/01/28 14:33:10;;;;;;;4.30;0.90;;;;;;;;;;4950413;28;20035;-66
2022/01/28 14:35:35;;;;;;;8.50;1.10;;;;;;;;;;4953979;28;20463;-67
2022/01/28 14:38:01;;;;;;;9.32;1.38;;;;;;;;;;4950110;28;20027;-66
2022/01/28 14:40:26;;;;;;;10.88;1.58;;;;;;;;;;4950499;29;20114;-66
2022/01/28 14:42:51;;;;;;;6.85;1.50;;;;;;;;;;4952528;28;20061;-67
2022/01/28 14:45:17;;;;;;;7.72;0.50;;;;;;;;;;4951004;28;20395;-68
2022/01/28 14:47:42;;;;;;;7.78;0.85;;;;;;;;;;4950248;28;20062;-67
2022/01/28 14:50:07;;;;;;;7.72;1.63;;;;;;;;;;4948910;28;20023;-66
2022/01/28 14:52:33;;;;;;;7.05;0.75;;;;;;;;;;4947776;29;20035;-67
2022/01/28 14:54:58;;;;;;;6.95;0.98;;;;;;;;;;4961930;28;20050;-68
2022/01/28 14:57:25;;;;;;;9.45;1.45;;;;;;;;;;4953188;28;20062;-67
2022/01/28 14:59:51;;;;;;;11.15;1.42;;;;;;;;;;4952773;29;20420;-67
2022/01/28 15:02:21;;;;;;;8.43;1.20;;;;;;;;;;4946470;28;20030;-67
2022/01/28 15:04:46;;;;;;;6.78;1.52;;;;;;;;;;4952731;29;20107;-67
2022/01/28 15:07:12;;;;;;;5.90;1.02;;;;;;;;;;4948805;28;20098;-67
2022/01/28 15:09:40;;;;;;;8.82;1.20;;;;;;;;;;4957885;28;20031;-66
2022/01/28 15:12:07;;;;;;;6.25;0.65;;;;;;;;;;4952464;28;20074;-67
2022/01/28 15:14:32;;;;;;;6.68;1.48;;;;;;;;;;4954205;28;20023;-66
2022/01/28 15:16:57;;;;;;;12.40;1.48;;;;;;;;;;4953962;28;20031;-67
2022/01/28 15:19:22;;;;;;;13.05;1.70;;;;;;;;;;4943750;28;20033;-66
2022/01/28 15:21:51;;;;;;;11.57;1.35;;;;;;;;;;4945604;28;20023;-66
2022/01/28 15:24:20;;;;;;;10.82;1.15;;;;;;;;;;4948039;28;20118;-67
2022/01/28 15:26:46;;;;;;;7.22;1.10;;;;;;;;;;4949997;28;20035;-66
2022/01/28 15:29:32;;;;;;;8.80;1.08;;;;;;;;;;4949419;28;20480;-66
2022/01/28 15:37:08;;;;;;;14.00;2.33;;;;;;;;;;4949766;28;20142;-66
2022/01/28 15:39:37;;;;;;;10.10;1.95;;;;;;;;;;4949908;28;20118;-66
2022/01/28 15:42:06;;;;;;;7.00;1.00;;;;;;;;;;4951534;29;20114;-65
2022/01/28 15:44:31;;;;;;;12.00;1.98;;;;;;;;;;4949185;29;20026;-65
2022/01/28 15:46:57;;;;;;;10.75;1.58;;;;;;;;;;4952328;28;20011;-66
2022/01/28 15:49:22;;;;;;;7.95;1.27;;;;;;;;;;4948711;28;20432;-66
2022/01/28 15:51:48;;;;;;;13.65;1.73;;;;;;;;;;4943831;28;20024;-66
2022/01/28 15:54:13;;;;;;;11.23;1.85;;;;;;;;;;4948524;29;20596;-66
2022/01/28 15:56:38;;;;;;;10.63;1.80;;;;;;;;;;4942852;28;20468;-66
2022/01/28 15:59:03;;;;;;;10.32;2.03;;;;;;;;;;4940092;28;20066;-66
2022/01/28 16:01:29;;;;;;;10.10;1.15;;;;;;;;;;4947780;28;20027;-66
2022/01/28 16:03:54;;;;;;;10.43;1.08;;;;;;;;;;4949807;28;20033;-67
2022/01/28 16:06:19;;;;;;;8.55;1.23;;;;;;;;;;4948232;28;20030;-66
2022/01/28 16:08:45;;;;;;;6.35;1.48;;;;;;;;;;4951659;28;20106;-66
2022/01/28 16:14:00;;;;;;;8.82;1.25;;;;;;;;;;4950637;28;20098;-66
2022/01/28 16:19:08;;;;;;;12.32;1.50;;;;;;;;;;4947260;29;20523;-66
2022/01/28 16:21:33;;;;;;;11.63;1.55;;;;;;;;;;4945963;28;20027;-66
2022/01/28 16:23:58;;;;;;;10.60;2.20;;;;;;;;;;4948008;28;20034;-66
2022/01/28 16:26:27;;;;;;;8.00;1.33;;;;;;;;;;4948797;28;20122;-66
2022/01/28 16:28:52;;;;;;;5.82;1.30;;;;;;;;;;4952940;28;20098;-67